sensor_id;sensor_type;location;lat;lon;timestamp;temperature;humidity
18101;DHT22;9177;49.156;8.142;2023-06-10T00:02:22;24.80;94.30
18101;DHT22;9177;49.156;8.142;2023-06-10T00:04:49;24.80;94.30
18101;DHT22;9177;49.156;8.142;2023-06-10T00:07:16;24.80;94.30
18101;DHT22;9177;49.156;8.142;2023-06-10T00:09:43;24.70;94.30
18101;DHT22;9177;49.156;8.142;2023-06-10T00:12:11;24.80;94.30
18101;DHT22;9177;49.156;8.142;2023-06-10T00:14:39;24.70;94.30
18101;DHT22;9177;49.156;8.142;2023-06-10T00:17:06;24.80;94.30
18101;DHT22;9177;49.156;8.142;2023-06-10T00:19:37;24.80;94.40
18101;DHT22;9177;49.156;8.142;2023-06-10T00:22:07;24.70;94.30
18101;DHT22;9177;49.156;8.142;2023-06-10T00:24:34;24.80;94.40
18101;DHT22;9177;49.156;8.142;2023-06-10T00:27:01;24.70;94.30
18101;DHT22;9177;49.156;8.142;2023-06-10T00:29:28;24.70;94.30
18101;DHT22;9177;49.156;8.142;2023-06-10T00:31:55;24.70;94.30
18101;DHT22;9177;49.156;8.142;2023-06-10T00:34:23;24.70;94.30
18101;DHT22;9177;49.156;8.142;2023-06-10T00:36:52;24.70;94.30
18101;DHT22;9177;49.156;8.142;2023-06-10T00:39:19;24.70;94.40
18101;DHT22;9177;49.156;8.142;2023-06-10T00:41:46;24.70;94.30
18101;DHT22;9177;49.156;8.142;2023-06-10T00:44:13;24.70;94.30
18101;DHT22;9177;49.156;8.142;2023-06-10T00:46:40;24.70;94.30
18101;DHT22;9177;49.156;8.142;2023-06-10T00:49:08;24.70;94.30
18101;DHT22;9177;49.156;8.142;2023-06-10T00:51:35;24.70;94.30
18101;DHT22;9177;49.156;8.142;2023-06-10T00:54:04;24.70;94.30
18101;DHT22;9177;49.156;8.142;2023-06-10T00:56:32;24.70;94.40
18101;DHT22;9177;49.156;8.142;2023-06-10T00:59:00;24.70;94.40
18101;DHT22;9177;49.156;8.142;2023-06-10T01:01:27;24.70;94.40
18101;DHT22;9177;49.156;8.142;2023-06-10T01:03:55;24.70;94.40
18101;DHT22;9177;49.156;8.142;2023-06-10T01:06:31;24.70;94.40
18101;DHT22;9177;49.156;8.142;2023-06-10T01:09:09;24.70;94.40
18101;DHT22;9177;49.156;8.142;2023-06-10T01:11:45;24.70;94.40
18101;DHT22;9177;49.156;8.142;2023-06-10T01:14:13;24.70;94.40
18101;DHT22;9177;49.156;8.142;2023-06-10T01:16:40;24.70;94.70
18101;DHT22;9177;49.156;8.142;2023-06-10T01:19:08;24.70;94.40
18101;DHT22;9177;49.156;8.142;2023-06-10T01:21:37;24.70;94.40
18101;DHT22;9177;49.156;8.142;2023-06-10T01:24:06;24.70;94.40
18101;DHT22;9177;49.156;8.142;2023-06-10T01:26:34;24.70;94.40
18101;DHT22;9177;49.156;8.142;2023-06-10T01:29:06;24.70;94.40
18101;DHT22;9177;49.156;8.142;2023-06-10T01:31:38;24.70;94.40
18101;DHT22;9177;49.156;8.142;2023-06-10T01:34:11;24.70;94.40
18101;DHT22;9177;49.156;8.142;2023-06-10T01:36:41;24.70;94.40
18101;DHT22;9177;49.156;8.142;2023-06-10T01:39:11;24.70;94.40
18101;DHT22;9177;49.156;8.142;2023-06-10T01:41:38;24.70;94.40
18101;DHT22;9177;49.156;8.142;2023-06-10T01:44:06;24.60;94.40
18101;DHT22;9177;49.156;8.142;2023-06-10T01:46:33;24.60;94.40
18101;DHT22;9177;49.156;8.142;2023-06-10T01:49:00;24.70;94.40
18101;DHT22;9177;49.156;8.142;2023-06-10T01:51:27;24.60;94.30
18101;DHT22;9177;49.156;8.142;2023-06-10T01:53:55;24.60;94.40
18101;DHT22;9177;49.156;8.142;2023-06-10T01:56:22;24.60;94.40
18101;DHT22;9177;49.156;8.142;2023-06-10T01:58:48;24.60;94.40
18101;DHT22;9177;49.156;8.142;2023-06-10T02:01:16;24.70;94.40
18101;DHT22;9177;49.156;8.142;2023-06-10T02:03:42;24.60;94.40
18101;DHT22;9177;49.156;8.142;2023-06-10T02:06:09;24.70;94.40
18101;DHT22;9177;49.156;8.142;2023-06-10T02:08:36;24.60;94.40
18101;DHT22;9177;49.156;8.142;2023-06-10T02:11:04;24.60;94.40
18101;DHT22;9177;49.156;8.142;2023-06-10T02:13:32;24.60;94.30
18101;DHT22;9177;49.156;8.142;2023-06-10T02:15:59;24.60;94.40
18101;DHT22;9177;49.156;8.142;2023-06-10T02:18:26;24.60;94.40
18101;DHT22;9177;49.156;8.142;2023-06-10T02:20:53;24.60;94.40
18101;DHT22;9177;49.156;8.142;2023-06-10T02:23:20;24.70;94.40
18101;DHT22;9177;49.156;8.142;2023-06-10T02:25:47;24.60;94.40
18101;DHT22;9177;49.156;8.142;2023-06-10T02:28:15;24.60;94.40
18101;DHT22;9177;49.156;8.142;2023-06-10T02:30:42;24.60;94.40
18101;DHT22;9177;49.156;8.142;2023-06-10T02:33:11;24.60;94.30
18101;DHT22;9177;49.156;8.142;2023-06-10T02:35:38;24.60;94.40
18101;DHT22;9177;49.156;8.142;2023-06-10T02:38:05;24.60;94.40
18101;DHT22;9177;49.156;8.142;2023-06-10T02:40:33;24.60;94.30
18101;DHT22;9177;49.156;8.142;2023-06-10T02:42:59;24.60;94.30
18101;DHT22;9177;49.156;8.142;2023-06-10T02:45:27;24.60;94.50
18101;DHT22;9177;49.156;8.142;2023-06-10T02:47:54;24.60;94.30
18101;DHT22;9177;49.156;8.142;2023-06-10T02:50:21;24.60;94.40
18101;DHT22;9177;49.156;8.142;2023-06-10T02:52:48;24.60;94.30
18101;DHT22;9177;49.156;8.142;2023-06-10T02:55:15;24.60;94.40
18101;DHT22;9177;49.156;8.142;2023-06-10T02:57:42;24.60;94.40
18101;DHT22;9177;49.156;8.142;2023-06-10T03:00:09;24.60;94.40
18101;DHT22;9177;49.156;8.142;2023-06-10T03:02:38;24.60;94.40
18101;DHT22;9177;49.156;8.142;2023-06-10T03:05:05;24.60;94.40
18101;DHT22;9177;49.156;8.142;2023-06-10T03:07:35;24.60;94.40
18101;DHT22;9177;49.156;8.142;2023-06-10T03:10:03;24.60;94.40
18101;DHT22;9177;49.156;8.142;2023-06-10T03:12:30;24.60;94.40
18101;DHT22;9177;49.156;8.142;2023-06-10T03:14:57;24.60;94.40
18101;DHT22;9177;49.156;8.142;2023-06-10T03:17:24;24.60;94.40
18101;DHT22;9177;49.156;8.142;2023-06-10T03:19:52;24.60;94.40
18101;DHT22;9177;49.156;8.142;2023-06-10T03:22:19;24.60;94.40
18101;DHT22;9177;49.156;8.142;2023-06-10T03:24:49;24.60;94.40
18101;DHT22;9177;49.156;8.142;2023-06-10T03:27:16;24.60;94.40
18101;DHT22;9177;49.156;8.142;2023-06-10T03:29:43;24.60;94.40
18101;DHT22;9177;49.156;8.142;2023-06-10T03:32:10;24.60;94.40
18101;DHT22;9177;49.156;8.142;2023-06-10T03:34:37;24.60;94.40
18101;DHT22;9177;49.156;8.142;2023-06-10T03:37:05;24.60;94.40
18101;DHT22;9177;49.156;8.142;2023-06-10T03:39:33;24.60;94.40
18101;DHT22;9177;49.156;8.142;2023-06-10T03:42:00;24.60;94.40
18101;DHT22;9177;49.156;8.142;2023-06-10T03:44:27;24.60;94.40
18101;DHT22;9177;49.156;8.142;2023-06-10T03:46:54;24.50;94.30
18101;DHT22;9177;49.156;8.142;2023-06-10T03:49:21;24.60;94.40
18101;DHT22;9177;49.156;8.142;2023-06-10T03:51:52;24.50;94.70
18101;DHT22;9177;49.156;8.142;2023-06-10T03:54:23;24.50;94.40
18101;DHT22;9177;49.156;8.142;2023-06-10T03:56:50;24.50;94.40
18101;DHT22;9177;49.156;8.142;2023-06-10T03:59:17;24.50;94.40
18101;DHT22;9177;49.156;8.142;2023-06-10T04:01:44;24.50;94.40
18101;DHT22;9177;49.156;8.142;2023-06-10T04:04:14;24.50;94.40
18101;DHT22;9177;49.156;8.142;2023-06-10T04:06:42;24.50;94.40
18101;DHT22;9177;49.156;8.142;2023-06-10T04:09:10;24.50;94.30
18101;DHT22;9177;49.156;8.142;2023-06-10T04:11:38;24.50;94.30
18101;DHT22;9177;49.156;8.142;2023-06-10T04:14:05;24.50;94.30
18101;DHT22;9177;49.156;8.142;2023-06-10T04:16:33;24.50;94.30
18101;DHT22;9177;49.156;8.142;2023-06-10T04:19:00;24.50;94.30
18101;DHT22;9177;49.156;8.142;2023-06-10T04:21:28;24.50;94.30
18101;DHT22;9177;49.156;8.142;2023-06-10T04:23:55;24.50;94.30
18101;DHT22;9177;49.156;8.142;2023-06-10T04:26:21;24.50;94.30
18101;DHT22;9177;49.156;8.142;2023-06-10T04:28:50;24.50;94.30
18101;DHT22;9177;49.156;8.142;2023-06-10T04:31:16;24.60;94.40
18101;DHT22;9177;49.156;8.142;2023-06-10T04:33:43;24.50;94.30
18101;DHT22;9177;49.156;8.142;2023-06-10T04:36:10;24.50;94.30
18101;DHT22;9177;49.156;8.142;2023-06-10T04:38:37;24.60;94.30
18101;DHT22;9177;49.156;8.142;2023-06-10T04:41:04;24.50;94.30
18101;DHT22;9177;49.156;8.142;2023-06-10T04:43:30;24.50;94.30
18101;DHT22;9177;49.156;8.142;2023-06-10T04:45:59;24.50;94.30
18101;DHT22;9177;49.156;8.142;2023-06-10T04:48:26;24.50;94.30
18101;DHT22;9177;49.156;8.142;2023-06-10T04:50:52;24.50;94.30
18101;DHT22;9177;49.156;8.142;2023-06-10T04:53:20;24.60;94.30
18101;DHT22;9177;49.156;8.142;2023-06-10T04:55:46;24.50;94.30
18101;DHT22;9177;49.156;8.142;2023-06-10T04:58:14;24.50;94.30
18101;DHT22;9177;49.156;8.142;2023-06-10T05:00:41;24.50;94.30
18101;DHT22;9177;49.156;8.142;2023-06-10T05:03:10;24.50;94.30
18101;DHT22;9177;49.156;8.142;2023-06-10T05:05:37;24.50;94.30
18101;DHT22;9177;49.156;8.142;2023-06-10T05:08:04;24.50;94.30
18101;DHT22;9177;49.156;8.142;2023-06-10T05:10:31;24.60;94.30
18101;DHT22;9177;49.156;8.142;2023-06-10T05:12:59;24.50;94.30
18101;DHT22;9177;49.156;8.142;2023-06-10T05:15:26;24.50;94.30
18101;DHT22;9177;49.156;8.142;2023-06-10T05:17:56;24.50;94.30
18101;DHT22;9177;49.156;8.142;2023-06-10T05:20:24;24.50;94.30
18101;DHT22;9177;49.156;8.142;2023-06-10T05:22:52;24.60;94.30
18101;DHT22;9177;49.156;8.142;2023-06-10T05:25:19;24.60;94.30
18101;DHT22;9177;49.156;8.142;2023-06-10T05:27:46;24.60;94.30
18101;DHT22;9177;49.156;8.142;2023-06-10T05:30:13;24.60;94.30
18101;DHT22;9177;49.156;8.142;2023-06-10T05:32:40;24.60;94.30
18101;DHT22;9177;49.156;8.142;2023-06-10T05:35:07;24.60;94.30
18101;DHT22;9177;49.156;8.142;2023-06-10T05:37:35;24.60;94.30
18101;DHT22;9177;49.156;8.142;2023-06-10T05:40:03;24.60;94.30
18101;DHT22;9177;49.156;8.142;2023-06-10T05:42:31;24.60;94.30
18101;DHT22;9177;49.156;8.142;2023-06-10T05:44:57;24.60;94.30
18101;DHT22;9177;49.156;8.142;2023-06-10T05:47:24;24.60;94.40
18101;DHT22;9177;49.156;8.142;2023-06-10T05:49:51;24.60;94.30
18101;DHT22;9177;49.156;8.142;2023-06-10T05:52:18;24.60;94.40
18101;DHT22;9177;49.156;8.142;2023-06-10T05:54:46;24.60;94.30
18101;DHT22;9177;49.156;8.142;2023-06-10T05:57:13;24.60;94.30
18101;DHT22;9177;49.156;8.142;2023-06-10T05:59:40;24.60;94.40
18101;DHT22;9177;49.156;8.142;2023-06-10T06:02:07;24.60;94.40
18101;DHT22;9177;49.156;8.142;2023-06-10T06:04:34;24.60;94.40
18101;DHT22;9177;49.156;8.142;2023-06-10T06:07:00;24.60;94.40
18101;DHT22;9177;49.156;8.142;2023-06-10T06:09:27;24.60;94.40
18101;DHT22;9177;49.156;8.142;2023-06-10T06:11:55;24.60;94.40
18101;DHT22;9177;49.156;8.142;2023-06-10T06:14:22;24.60;94.40
18101;DHT22;9177;49.156;8.142;2023-06-10T06:16:49;24.60;94.40
18101;DHT22;9177;49.156;8.142;2023-06-10T06:19:18;24.60;94.40
18101;DHT22;9177;49.156;8.142;2023-06-10T06:21:45;24.60;94.40
18101;DHT22;9177;49.156;8.142;2023-06-10T06:24:13;24.60;94.40
18101;DHT22;9177;49.156;8.142;2023-06-10T06:26:40;24.60;94.40
18101;DHT22;9177;49.156;8.142;2023-06-10T06:29:08;24.60;94.40
18101;DHT22;9177;49.156;8.142;2023-06-10T06:31:35;24.60;94.40
18101;DHT22;9177;49.156;8.142;2023-06-10T06:34:02;24.60;94.40
18101;DHT22;9177;49.156;8.142;2023-06-10T06:36:29;24.60;94.40
18101;DHT22;9177;49.156;8.142;2023-06-10T06:38:56;24.60;94.40
18101;DHT22;9177;49.156;8.142;2023-06-10T06:41:24;24.60;94.40
18101;DHT22;9177;49.156;8.142;2023-06-10T06:43:51;24.60;94.40
18101;DHT22;9177;49.156;8.142;2023-06-10T06:46:19;24.60;94.40
18101;DHT22;9177;49.156;8.142;2023-06-10T06:48:47;24.60;94.40
18101;DHT22;9177;49.156;8.142;2023-06-10T06:51:14;24.60;94.40
18101;DHT22;9177;49.156;8.142;2023-06-10T06:53:40;24.60;94.40
18101;DHT22;9177;49.156;8.142;2023-06-10T06:56:10;24.60;94.40
18101;DHT22;9177;49.156;8.142;2023-06-10T06:58:37;24.60;94.40
18101;DHT22;9177;49.156;8.142;2023-06-10T07:01:04;24.70;94.40
18101;DHT22;9177;49.156;8.142;2023-06-10T07:03:32;24.60;94.40
18101;DHT22;9177;49.156;8.142;2023-06-10T07:05:59;24.60;94.40
18101;DHT22;9177;49.156;8.142;2023-06-10T07:08:26;24.60;94.40
18101;DHT22;9177;49.156;8.142;2023-06-10T07:10:53;24.70;94.40
18101;DHT22;9177;49.156;8.142;2023-06-10T07:13:20;24.60;94.30
18101;DHT22;9177;49.156;8.142;2023-06-10T07:15:47;24.70;94.40
18101;DHT22;9177;49.156;8.142;2023-06-10T07:18:15;24.70;94.40
18101;DHT22;9177;49.156;8.142;2023-06-10T07:20:44;24.70;94.40
18101;DHT22;9177;49.156;8.142;2023-06-10T07:23:11;24.70;94.50
18101;DHT22;9177;49.156;8.142;2023-06-10T07:25:38;24.70;94.50
18101;DHT22;9177;49.156;8.142;2023-06-10T07:28:05;24.70;94.50
18101;DHT22;9177;49.156;8.142;2023-06-10T07:30:32;24.80;94.50
18101;DHT22;9177;49.156;8.142;2023-06-10T07:32:59;24.80;94.50
18101;DHT22;9177;49.156;8.142;2023-06-10T07:35:27;24.80;94.50
18101;DHT22;9177;49.156;8.142;2023-06-10T07:37:55;24.80;94.40
18101;DHT22;9177;49.156;8.142;2023-06-10T07:40:23;24.80;94.40
18101;DHT22;9177;49.156;8.142;2023-06-10T07:42:50;24.80;94.40
18101;DHT22;9177;49.156;8.142;2023-06-10T07:45:18;24.90;94.40
18101;DHT22;9177;49.156;8.142;2023-06-10T07:47:45;24.90;94.30
18101;DHT22;9177;49.156;8.142;2023-06-10T07:50:13;24.90;94.30
18101;DHT22;9177;49.156;8.142;2023-06-10T07:52:43;24.90;94.30
18101;DHT22;9177;49.156;8.142;2023-06-10T07:55:12;24.90;94.30
18101;DHT22;9177;49.156;8.142;2023-06-10T07:57:38;24.90;94.30
18101;DHT22;9177;49.156;8.142;2023-06-10T08:00:06;25.00;94.30
18101;DHT22;9177;49.156;8.142;2023-06-10T08:02:33;25.00;94.30
18101;DHT22;9177;49.156;8.142;2023-06-10T08:05:00;25.00;94.30
18101;DHT22;9177;49.156;8.142;2023-06-10T08:07:27;25.00;94.30
18101;DHT22;9177;49.156;8.142;2023-06-10T08:09:55;25.00;94.60
18101;DHT22;9177;49.156;8.142;2023-06-10T08:12:23;25.00;94.20
18101;DHT22;9177;49.156;8.142;2023-06-10T08:14:50;25.00;94.20
18101;DHT22;9177;49.156;8.142;2023-06-10T08:17:17;25.00;94.20
18101;DHT22;9177;49.156;8.142;2023-06-10T08:19:44;25.00;94.20
18101;DHT22;9177;49.156;8.142;2023-06-10T08:22:11;25.00;94.20
18101;DHT22;9177;49.156;8.142;2023-06-10T08:24:38;25.10;94.20
18101;DHT22;9177;49.156;8.142;2023-06-10T08:27:05;25.00;94.20
18101;DHT22;9177;49.156;8.142;2023-06-10T08:29:34;25.10;94.20
18101;DHT22;9177;49.156;8.142;2023-06-10T08:32:01;25.10;94.20
18101;DHT22;9177;49.156;8.142;2023-06-10T08:34:28;25.10;94.20
18101;DHT22;9177;49.156;8.142;2023-06-10T08:36:55;25.10;94.10
18101;DHT22;9177;49.156;8.142;2023-06-10T08:39:22;25.10;94.10
18101;DHT22;9177;49.156;8.142;2023-06-10T08:41:56;25.10;94.10
18101;DHT22;9177;49.156;8.142;2023-06-10T08:44:28;25.10;94.10
18101;DHT22;9177;49.156;8.142;2023-06-10T08:46:59;25.10;94.10
18101;DHT22;9177;49.156;8.142;2023-06-10T08:49:27;25.10;94.10
18101;DHT22;9177;49.156;8.142;2023-06-10T08:51:59;25.10;94.10
18101;DHT22;9177;49.156;8.142;2023-06-10T08:54:30;25.20;94.10
18101;DHT22;9177;49.156;8.142;2023-06-10T08:56:59;25.20;94.10
18101;DHT22;9177;49.156;8.142;2023-06-10T08:59:28;25.20;94.00
18101;DHT22;9177;49.156;8.142;2023-06-10T09:01:57;25.20;94.00
18101;DHT22;9177;49.156;8.142;2023-06-10T09:04:25;25.10;93.90
18101;DHT22;9177;49.156;8.142;2023-06-10T09:06:53;25.20;93.90
18101;DHT22;9177;49.156;8.142;2023-06-10T09:09:21;25.20;93.90
18101;DHT22;9177;49.156;8.142;2023-06-10T09:11:49;25.20;93.80
18101;DHT22;9177;49.156;8.142;2023-06-10T09:14:16;25.20;93.80
18101;DHT22;9177;49.156;8.142;2023-06-10T09:16:43;25.20;93.80
18101;DHT22;9177;49.156;8.142;2023-06-10T09:19:14;25.20;93.70
18101;DHT22;9177;49.156;8.142;2023-06-10T09:21:42;25.20;93.70
18101;DHT22;9177;49.156;8.142;2023-06-10T09:24:09;25.20;93.70
18101;DHT22;9177;49.156;8.142;2023-06-10T09:26:36;25.20;93.70
18101;DHT22;9177;49.156;8.142;2023-06-10T09:29:04;25.20;93.70
18101;DHT22;9177;49.156;8.142;2023-06-10T09:31:32;25.20;94.10
18101;DHT22;9177;49.156;8.142;2023-06-10T09:34:08;25.20;93.70
18101;DHT22;9177;49.156;8.142;2023-06-10T09:36:37;25.20;93.60
18101;DHT22;9177;49.156;8.142;2023-06-10T09:39:05;25.20;93.60
18101;DHT22;9177;49.156;8.142;2023-06-10T09:41:41;25.20;93.60
18101;DHT22;9177;49.156;8.142;2023-06-10T09:44:12;25.20;93.60
18101;DHT22;9177;49.156;8.142;2023-06-10T09:46:40;25.30;93.60
18101;DHT22;9177;49.156;8.142;2023-06-10T09:49:07;25.30;93.60
18101;DHT22;9177;49.156;8.142;2023-06-10T09:51:35;25.30;93.60
18101;DHT22;9177;49.156;8.142;2023-06-10T09:54:04;25.30;93.60
18101;DHT22;9177;49.156;8.142;2023-06-10T09:56:35;25.30;93.60
18101;DHT22;9177;49.156;8.142;2023-06-10T09:59:02;25.30;93.60
18101;DHT22;9177;49.156;8.142;2023-06-10T10:01:32;25.30;93.60
18101;DHT22;9177;49.156;8.142;2023-06-10T10:03:59;25.30;93.50
18101;DHT22;9177;49.156;8.142;2023-06-10T10:06:28;25.30;93.50
18101;DHT22;9177;49.156;8.142;2023-06-10T10:08:55;25.30;93.50
18101;DHT22;9177;49.156;8.142;2023-06-10T10:11:25;25.30;93.50
18101;DHT22;9177;49.156;8.142;2023-06-10T10:13:53;25.30;93.50
18101;DHT22;9177;49.156;8.142;2023-06-10T10:16:24;25.30;93.50
18101;DHT22;9177;49.156;8.142;2023-06-10T10:18:55;25.30;93.50
18101;DHT22;9177;49.156;8.142;2023-06-10T10:21:24;25.30;93.50
18101;DHT22;9177;49.156;8.142;2023-06-10T10:23:56;25.30;93.60
18101;DHT22;9177;49.156;8.142;2023-06-10T10:26:27;25.30;93.60
18101;DHT22;9177;49.156;8.142;2023-06-10T10:29:05;25.30;93.60
18101;DHT22;9177;49.156;8.142;2023-06-10T10:31:38;25.30;93.60
18101;DHT22;9177;49.156;8.142;2023-06-10T10:34:10;25.30;93.60
18101;DHT22;9177;49.156;8.142;2023-06-10T10:36:39;25.40;93.60
18101;DHT22;9177;49.156;8.142;2023-06-10T10:39:06;25.40;93.60
18101;DHT22;9177;49.156;8.142;2023-06-10T10:41:37;25.30;93.60
18101;DHT22;9177;49.156;8.142;2023-06-10T10:44:06;25.40;93.60
18101;DHT22;9177;49.156;8.142;2023-06-10T10:46:42;25.40;93.60
18101;DHT22;9177;49.156;8.142;2023-06-10T10:49:13;25.40;93.60
18101;DHT22;9177;49.156;8.142;2023-06-10T10:51:55;25.40;93.60
18101;DHT22;9177;49.156;8.142;2023-06-10T10:54:28;25.40;93.60
18101;DHT22;9177;49.156;8.142;2023-06-10T10:57:17;25.40;93.50
18101;DHT22;9177;49.156;8.142;2023-06-10T10:59:55;25.40;93.50
18101;DHT22;9177;49.156;8.142;2023-06-10T11:02:36;25.40;93.50
18101;DHT22;9177;49.156;8.142;2023-06-10T11:05:05;25.40;93.50
18101;DHT22;9177;49.156;8.142;2023-06-10T11:07:33;25.50;93.50
18101;DHT22;9177;49.156;8.142;2023-06-10T11:10:05;25.50;93.50
18101;DHT22;9177;49.156;8.142;2023-06-10T11:12:50;25.40;93.50
18101;DHT22;9177;49.156;8.142;2023-06-10T11:15:23;25.50;93.50
18101;DHT22;9177;49.156;8.142;2023-06-10T11:18:10;25.50;93.50
18101;DHT22;9177;49.156;8.142;2023-06-10T11:20:55;25.50;93.50
18101;DHT22;9177;49.156;8.142;2023-06-10T11:23:41;25.50;93.50
18101;DHT22;9177;49.156;8.142;2023-06-10T11:26:20;25.50;93.50
18101;DHT22;9177;49.156;8.142;2023-06-10T11:29:04;25.50;93.50
18101;DHT22;9177;49.156;8.142;2023-06-10T11:31:36;25.50;93.50
18101;DHT22;9177;49.156;8.142;2023-06-10T11:34:06;25.50;93.50
18101;DHT22;9177;49.156;8.142;2023-06-10T11:36:36;25.60;93.50
18101;DHT22;9177;49.156;8.142;2023-06-10T11:39:05;25.60;93.40
18101;DHT22;9177;49.156;8.142;2023-06-10T11:41:33;25.60;93.40
18101;DHT22;9177;49.156;8.142;2023-06-10T11:44:03;25.60;93.40
18101;DHT22;9177;49.156;8.142;2023-06-10T11:46:31;25.70;93.50
18101;DHT22;9177;49.156;8.142;2023-06-10T11:48:59;25.70;93.40
18101;DHT22;9177;49.156;8.142;2023-06-10T11:51:28;25.60;93.40
18101;DHT22;9177;49.156;8.142;2023-06-10T11:53:56;25.70;93.50
18101;DHT22;9177;49.156;8.142;2023-06-10T11:56:24;25.70;93.50
18101;DHT22;9177;49.156;8.142;2023-06-10T11:58:55;25.60;93.60
18101;DHT22;9177;49.156;8.142;2023-06-10T12:01:25;25.60;93.50
18101;DHT22;9177;49.156;8.142;2023-06-10T12:04:00;25.60;93.60
18101;DHT22;9177;49.156;8.142;2023-06-10T12:06:28;25.60;93.80
18101;DHT22;9177;49.156;8.142;2023-06-10T12:09:04;25.50;94.00
18101;DHT22;9177;49.156;8.142;2023-06-10T12:11:31;25.60;94.30
18101;DHT22;9177;49.156;8.142;2023-06-10T12:13:58;25.70;94.20
18101;DHT22;9177;49.156;8.142;2023-06-10T12:16:27;25.70;94.30
18101;DHT22;9177;49.156;8.142;2023-06-10T12:19:01;25.70;94.40
18101;DHT22;9177;49.156;8.142;2023-06-10T12:21:29;25.70;94.30
18101;DHT22;9177;49.156;8.142;2023-06-10T12:24:06;25.80;94.20
18101;DHT22;9177;49.156;8.142;2023-06-10T12:26:39;25.80;94.10
18101;DHT22;9177;49.156;8.142;2023-06-10T12:29:20;25.80;94.00
18101;DHT22;9177;49.156;8.142;2023-06-10T12:32:00;25.90;93.90
18101;DHT22;9177;49.156;8.142;2023-06-10T12:34:36;25.90;93.80
18101;DHT22;9177;49.156;8.142;2023-06-10T12:37:04;25.90;93.70
18101;DHT22;9177;49.156;8.142;2023-06-10T12:39:32;26.00;93.60
18101;DHT22;9177;49.156;8.142;2023-06-10T12:42:00;26.00;93.60
18101;DHT22;9177;49.156;8.142;2023-06-10T12:44:35;26.10;93.40
18101;DHT22;9177;49.156;8.142;2023-06-10T12:47:09;26.10;93.40
18101;DHT22;9177;49.156;8.142;2023-06-10T12:49:38;26.10;93.40
18101;DHT22;9177;49.156;8.142;2023-06-10T12:52:06;26.00;93.40
18101;DHT22;9177;49.156;8.142;2023-06-10T12:54:34;26.00;93.30
18101;DHT22;9177;49.156;8.142;2023-06-10T12:57:02;26.10;93.30
18101;DHT22;9177;49.156;8.142;2023-06-10T12:59:29;26.10;93.30
18101;DHT22;9177;49.156;8.142;2023-06-10T13:01:57;26.10;93.30
18101;DHT22;9177;49.156;8.142;2023-06-10T13:04:26;26.10;93.30
18101;DHT22;9177;49.156;8.142;2023-06-10T13:06:53;26.00;93.30
18101;DHT22;9177;49.156;8.142;2023-06-10T13:09:22;26.00;93.30
18101;DHT22;9177;49.156;8.142;2023-06-10T13:11:49;26.00;93.30
18101;DHT22;9177;49.156;8.142;2023-06-10T13:14:16;26.10;93.30
18101;DHT22;9177;49.156;8.142;2023-06-10T13:16:43;26.10;93.30
18101;DHT22;9177;49.156;8.142;2023-06-10T13:19:10;26.10;93.30
18101;DHT22;9177;49.156;8.142;2023-06-10T13:21:39;26.10;93.20
18101;DHT22;9177;49.156;8.142;2023-06-10T13:24:07;26.20;93.20
18101;DHT22;9177;49.156;8.142;2023-06-10T13:26:34;26.20;93.20
18101;DHT22;9177;49.156;8.142;2023-06-10T13:29:01;26.20;93.20
18101;DHT22;9177;49.156;8.142;2023-06-10T13:31:28;26.20;93.10
18101;DHT22;9177;49.156;8.142;2023-06-10T13:33:56;26.20;93.10
18101;DHT22;9177;49.156;8.142;2023-06-10T13:36:23;26.10;93.10
18101;DHT22;9177;49.156;8.142;2023-06-10T13:38:51;26.10;93.20
18101;DHT22;9177;49.156;8.142;2023-06-10T13:41:19;26.00;93.20
18101;DHT22;9177;49.156;8.142;2023-06-10T13:43:46;26.10;93.20
18101;DHT22;9177;49.156;8.142;2023-06-10T13:46:13;26.10;93.20
18101;DHT22;9177;49.156;8.142;2023-06-10T13:48:44;26.10;93.20
18101;DHT22;9177;49.156;8.142;2023-06-10T13:51:11;26.20;93.20
18101;DHT22;9177;49.156;8.142;2023-06-10T13:53:38;26.20;93.10
18101;DHT22;9177;49.156;8.142;2023-06-10T13:56:06;26.20;93.00
18101;DHT22;9177;49.156;8.142;2023-06-10T13:58:34;26.20;93.00
18101;DHT22;9177;49.156;8.142;2023-06-10T14:01:04;26.10;93.00
18101;DHT22;9177;49.156;8.142;2023-06-10T14:03:31;26.10;93.20
18101;DHT22;9177;49.156;8.142;2023-06-10T14:05:59;26.10;93.10
18101;DHT22;9177;49.156;8.142;2023-06-10T14:08:26;26.10;93.20
18101;DHT22;9177;49.156;8.142;2023-06-10T14:10:53;26.10;93.20
18101;DHT22;9177;49.156;8.142;2023-06-10T14:13:21;26.20;93.10
18101;DHT22;9177;49.156;8.142;2023-06-10T14:15:49;26.30;93.00
18101;DHT22;9177;49.156;8.142;2023-06-10T14:18:16;26.30;93.00
18101;DHT22;9177;49.156;8.142;2023-06-10T14:20:43;26.30;93.00
18101;DHT22;9177;49.156;8.142;2023-06-10T14:23:10;26.40;93.00
18101;DHT22;9177;49.156;8.142;2023-06-10T14:25:37;26.40;92.90
18101;DHT22;9177;49.156;8.142;2023-06-10T14:28:04;26.40;92.90
18101;DHT22;9177;49.156;8.142;2023-06-10T14:30:33;26.40;92.90
18101;DHT22;9177;49.156;8.142;2023-06-10T14:33:00;26.30;92.80
18101;DHT22;9177;49.156;8.142;2023-06-10T14:35:28;26.30;92.80
18101;DHT22;9177;49.156;8.142;2023-06-10T14:37:55;26.30;92.90
18101;DHT22;9177;49.156;8.142;2023-06-10T14:40:22;26.30;93.00
18101;DHT22;9177;49.156;8.142;2023-06-10T14:42:50;26.30;92.90
18101;DHT22;9177;49.156;8.142;2023-06-10T14:45:22;26.30;93.30
18101;DHT22;9177;49.156;8.142;2023-06-10T14:47:52;26.30;92.90
18101;DHT22;9177;49.156;8.142;2023-06-10T14:50:19;26.30;93.00
18101;DHT22;9177;49.156;8.142;2023-06-10T14:52:46;26.30;93.00
18101;DHT22;9177;49.156;8.142;2023-06-10T14:55:13;26.30;92.90
18101;DHT22;9177;49.156;8.142;2023-06-10T14:57:41;26.30;92.90
18101;DHT22;9177;49.156;8.142;2023-06-10T15:00:10;26.30;92.90
18101;DHT22;9177;49.156;8.142;2023-06-10T15:02:37;26.30;92.90
18101;DHT22;9177;49.156;8.142;2023-06-10T15:05:06;26.30;92.90
18101;DHT22;9177;49.156;8.142;2023-06-10T15:07:34;26.30;92.80
18101;DHT22;9177;49.156;8.142;2023-06-10T15:10:01;26.30;92.80
18101;DHT22;9177;49.156;8.142;2023-06-10T15:12:28;26.40;92.80
18101;DHT22;9177;49.156;8.142;2023-06-10T15:14:55;26.40;92.80
18101;DHT22;9177;49.156;8.142;2023-06-10T15:17:22;26.40;92.80
18101;DHT22;9177;49.156;8.142;2023-06-10T15:19:49;26.40;92.80
18101;DHT22;9177;49.156;8.142;2023-06-10T15:22:18;26.40;92.70
18101;DHT22;9177;49.156;8.142;2023-06-10T15:24:45;26.40;92.70
18101;DHT22;9177;49.156;8.142;2023-06-10T15:27:13;26.40;92.70
18101;DHT22;9177;49.156;8.142;2023-06-10T15:29:40;26.40;92.70
18101;DHT22;9177;49.156;8.142;2023-06-10T15:32:08;26.40;92.70
18101;DHT22;9177;49.156;8.142;2023-06-10T15:34:35;26.40;92.70
18101;DHT22;9177;49.156;8.142;2023-06-10T15:37:03;26.40;92.60
18101;DHT22;9177;49.156;8.142;2023-06-10T15:39:32;26.40;92.60
18101;DHT22;9177;49.156;8.142;2023-06-10T15:41:59;26.40;92.60
18101;DHT22;9177;49.156;8.142;2023-06-10T15:44:26;26.40;92.60
18101;DHT22;9177;49.156;8.142;2023-06-10T15:46:53;26.40;92.60
18101;DHT22;9177;49.156;8.142;2023-06-10T15:49:20;26.40;92.60
18101;DHT22;9177;49.156;8.142;2023-06-10T15:51:47;26.40;92.60
18101;DHT22;9177;49.156;8.142;2023-06-10T15:54:15;26.40;92.60